Time;durP1;ratioP1;P1;durP2;ratioP2;P2;SDS_P1;SDS_P2;PMS_P1;PMS_P2;Temp;Humidity;BMP_temperature;BMP_pressure;BME280_temperature;BME280_humidity;BME280_pressure;Samples;Min_cycle;Max_cycle;Signal;HPM_P1;HPM_P2
2021/12/08 00:00:42;;;;;;;40.50;23.10;;;0.10;99.90;;;;;;5080476;28;20195;-53
2021/12/08 00:03:12;;;;;;;29.33;21.83;;;0.10;99.90;;;;;;5080342;28;20636;-56
2021/12/08 00:05:41;;;;;;;31.33;20.73;;;0.10;99.90;;;;;;5079834;28;20198;-53
2021/12/08 00:08:09;;;;;;;32.95;19.73;;;0.00;99.90;;;;;;5081231;28;20203;-55
2021/12/08 00:13:29;;;;;;;35.40;20.70;;;0.10;99.90;;;;;;5080987;28;20236;-51
2021/12/08 00:16:05;;;;;;;33.92;20.80;;;0.10;99.90;;;;;;5080827;28;20194;-52
2021/12/08 00:18:34;;;;;;;31.27;19.80;;;0.10;99.90;;;;;;5081545;28;20201;-52
2021/12/08 00:21:04;;;;;;;34.05;17.98;;;0.10;99.90;;;;;;5080466;28;20215;-54
2021/12/08 00:23:32;;;;;;;36.58;20.58;;;0.10;99.90;;;;;;5080906;28;20201;-53
2021/12/08 00:26:00;;;;;;;40.75;20.70;;;0.20;99.90;;;;;;5080222;28;20226;-52
2021/12/08 00:28:27;;;;;;;31.42;18.25;;;0.20;99.90;;;;;;5080637;28;20417;-53
2021/12/08 00:30:57;;;;;;;28.10;17.88;;;0.20;99.90;;;;;;5080225;28;20254;-54
2021/12/08 00:33:27;;;;;;;38.88;20.05;;;0.20;99.90;;;;;;5080077;28;20226;-53
2021/12/08 00:35:56;;;;;;;27.00;15.88;;;0.20;99.90;;;;;;5080584;28;20195;-53
2021/12/08 00:38:23;;;;;;;34.67;21.38;;;0.10;99.90;;;;;;5080291;28;20509;-55
2021/12/08 00:40:52;;;;;;;33.53;19.85;;;0.20;99.90;;;;;;5080075;28;20599;-55
2021/12/08 00:43:20;;;;;;;35.97;17.17;;;0.20;99.90;;;;;;5079503;28;20279;-55
2021/12/08 00:45:47;;;;;;;32.00;20.10;;;0.20;99.90;;;;;;5080382;28;20236;-55
2021/12/08 00:48:14;;;;;;;35.85;20.48;;;0.40;99.90;;;;;;5079491;28;20195;-54
2021/12/08 00:50:43;;;;;;;34.13;18.30;;;0.40;99.90;;;;;;5062394;28;20545;-55
2021/12/08 00:53:10;;;;;;;34.67;19.92;;;0.30;99.90;;;;;;5062266;28;20501;-54
2021/12/08 00:55:38;;;;;;;34.40;19.90;;;0.20;99.90;;;;;;5079950;28;20252;-54
2021/12/08 00:58:06;;;;;;;37.55;20.35;;;0.30;99.90;;;;;;5080059;28;20393;-55
2021/12/08 01:00:44;;;;;;;35.28;21.92;;;0.30;99.90;;;;;;5079660;28;20198;-53
2021/12/08 01:03:13;;;;;;;39.45;22.77;;;0.20;99.90;;;;;;5079953;28;20194;-53
2021/12/08 01:05:45;;;;;;;41.60;22.60;;;0.20;99.90;;;;;;5061074;28;20217;-53
2021/12/08 01:08:12;;;;;;;38.15;21.70;;;0.20;99.90;;;;;;5071268;28;20226;-54
2021/12/08 01:10:42;;;;;;;45.22;25.15;;;0.20;99.90;;;;;;5079733;28;20201;-55
2021/12/08 01:13:12;;;;;;;40.97;21.35;;;0.20;99.90;;;;;;5079892;28;20401;-56
2021/12/08 01:15:41;;;;;;;60.17;26.27;;;0.30;99.90;;;;;;5079796;28;20239;-54
2021/12/08 01:18:09;;;;;;;44.83;24.88;;;0.30;99.90;;;;;;5080870;28;20409;-56
2021/12/08 01:20:37;;;;;;;62.60;27.88;;;0.20;99.90;;;;;;5082005;28;20510;-57
2021/12/08 01:23:09;;;;;;;49.95;25.50;;;0.20;99.90;;;;;;5080616;28;20372;-53
2021/12/08 01:25:36;;;;;;;46.38;25.80;;;0.30;99.90;;;;;;5080156;28;20252;-57
2021/12/08 01:28:04;;;;;;;46.65;24.48;;;0.20;99.90;;;;;;5079317;28;20275;-52
2021/12/08 01:30:32;;;;;;;45.60;25.45;;;0.20;99.90;;;;;;5079839;28;20214;-53
2021/12/08 01:33:00;;;;;;;50.42;27.27;;;0.20;99.90;;;;;;5061657;28;20501;-53
2021/12/08 01:35:27;;;;;;;52.92;25.75;;;0.20;99.90;;;;;;5079201;28;20368;-52
2021/12/08 01:37:55;;;;;;;44.20;24.67;;;0.30;99.90;;;;;;5079607;28;20195;-53
2021/12/08 01:40:22;;;;;;;41.63;25.90;;;0.30;99.90;;;;;;5079694;28;20195;-53
2021/12/08 01:42:53;;;;;;;51.55;25.45;;;0.40;99.90;;;;;;5082243;28;20201;-52
2021/12/08 01:48:14;;;;;;;38.67;21.92;;;0.40;99.90;;;;;;5083731;28;20206;-54
2021/12/08 01:50:43;;;;;;;41.22;23.35;;;0.40;99.90;;;;;;5084168;28;20191;-52
2021/12/08 01:53:11;;;;;;;45.38;23.92;;;0.50;99.90;;;;;;5084281;28;20377;-54
2021/12/08 01:55:39;;;;;;;39.53;23.17;;;0.40;99.90;;;;;;5083317;28;20222;-53
2021/12/08 01:58:09;;;;;;;38.45;21.38;;;0.40;99.90;;;;;;5083407;28;20199;-52
2021/12/08 02:00:40;;;;;;;43.67;23.50;;;0.40;99.90;;;;;;5083500;28;20509;-53
2021/12/08 02:03:09;;;;;;;43.17;25.15;;;0.40;99.90;;;;;;5083550;28;20555;-53
2021/12/08 02:05:36;;;;;;;43.90;22.17;;;0.30;99.90;;;;;;5083390;28;20282;-52
2021/12/08 02:08:06;;;;;;;46.65;24.52;;;0.40;99.90;;;;;;5083097;28;20206;-55
2021/12/08 02:10:33;;;;;;;37.88;20.88;;;0.40;99.90;;;;;;5080473;28;20229;-53
2021/12/08 02:13:00;;;;;;;44.45;23.58;;;0.30;99.90;;;;;;5077223;28;20552;-55
2021/12/08 02:15:27;;;;;;;38.03;21.10;;;0.30;99.90;;;;;;5084211;28;20355;-55
2021/12/08 02:17:56;;;;;;;40.63;21.73;;;0.40;99.90;;;;;;5083549;28;20248;-56
2021/12/08 02:20:26;;;;;;;44.78;23.67;;;0.30;99.90;;;;;;5082870;28;20195;-58
2021/12/08 02:22:54;;;;;;;51.92;23.02;;;0.20;99.90;;;;;;5082603;28;20199;-56
2021/12/08 02:25:23;;;;;;;37.97;22.10;;;0.20;99.90;;;;;;5082692;28;20199;-55
2021/12/08 02:27:55;;;;;;;43.30;23.25;;;0.30;99.90;;;;;;5082673;28;20252;-53
2021/12/08 02:49:32;;;;;;;42.58;23.90;;;0.30;99.90;;;;;;5082517;28;20199;-56
2021/12/08 02:52:00;;;;;;;49.60;23.52;;;0.40;99.90;;;;;;5082384;28;20241;-51
2021/12/08 02:54:34;;;;;;;44.88;23.92;;;0.40;99.90;;;;;;5082224;28;20395;-54
2021/12/08 02:57:02;;;;;;;49.55;26.45;;;0.30;99.90;;;;;;5082402;28;20193;-56
2021/12/08 02:59:29;;;;;;;48.83;25.48;;;0.30;99.90;;;;;;5085228;28;20205;-55
2021/12/08 03:01:57;;;;;;;45.63;26.10;;;0.20;99.90;;;;;;5085846;28;20226;-53
2021/12/08 03:04:24;;;;;;;48.92;26.10;;;0.20;99.90;;;;;;5082398;28;20199;-52
2021/12/08 03:06:52;;;;;;;45.60;24.88;;;0.20;99.90;;;;;;5081599;28;20315;-55
2021/12/08 03:09:19;;;;;;;48.15;22.15;;;0.20;99.90;;;;;;5082269;28;20260;-55
2021/12/08 03:11:53;;;;;;;48.05;25.02;;;0.20;99.90;;;;;;5082125;28;20219;-55
2021/12/08 03:14:20;;;;;;;40.45;22.50;;;0.20;99.90;;;;;;5081909;28;20252;-54
2021/12/08 03:16:52;;;;;;;49.05;24.67;;;0.20;99.90;;;;;;5081878;28;20195;-52
2021/12/08 03:19:22;;;;;;;48.83;26.77;;;0.20;99.90;;;;;;5081430;28;20241;-53
2021/12/08 03:21:50;;;;;;;46.80;25.20;;;0.20;99.90;;;;;;5082207;28;20222;-55
2021/12/08 03:24:30;;;;;;;46.08;24.30;;;0.20;99.90;;;;;;5081668;28;20199;-54
2021/12/08 03:30:14;;;;;;;48.05;25.02;;;0.20;99.90;;;;;;5085256;28;20202;-57
2021/12/08 03:32:31;;;;;;;40.35;25.73;;;0.10;99.90;;;;;;5077161;28;20231;-56
2021/12/08 03:34:58;;;;;;;40.72;22.38;;;0.10;99.90;;;;;;5084980;28;20420;-55
2021/12/08 03:37:31;;;;;;;41.35;24.92;;;0.10;99.90;;;;;;5086236;28;20195;-55
2021/12/08 03:40:01;;;;;;;47.15;24.05;;;0.20;99.90;;;;;;5085676;28;20195;-55
2021/12/08 03:42:30;;;;;;;43.67;25.02;;;0.20;99.90;;;;;;5085692;28;20223;-53
2021/12/08 03:45:01;;;;;;;48.80;22.27;;;0.10;99.90;;;;;;5085088;28;20502;-57
2021/12/08 03:47:29;;;;;;;45.75;22.67;;;0.10;99.90;;;;;;5084947;28;20246;-54
2021/12/08 03:50:05;;;;;;;52.00;23.95;;;0.10;99.90;;;;;;5084178;28;20198;-56
2021/12/08 03:52:32;;;;;;;39.70;24.25;;;0.10;99.90;;;;;;5086094;28;20549;-57
2021/12/08 03:54:59;;;;;;;55.75;26.17;;;0.10;99.90;;;;;;5085200;28;20236;-56
2021/12/08 03:57:26;;;;;;;52.30;25.85;;;0.10;99.90;;;;;;5082903;28;20286;-55
2021/12/08 03:59:53;;;;;;;37.30;22.17;;;0.20;99.90;;;;;;5082168;28;20203;-57
2021/12/08 04:02:21;;;;;;;42.53;23.70;;;0.20;99.90;;;;;;5081170;28;20253;-56
2021/12/08 04:04:50;;;;;;;39.25;22.13;;;0.10;99.90;;;;;;5080808;28;20206;-53
2021/12/08 04:07:19;;;;;;;51.47;25.42;;;0.10;99.90;;;;;;5080653;28;20474;-55
2021/12/08 04:09:49;;;;;;;48.22;23.80;;;0.10;99.90;;;;;;5078614;28;20425;-53
2021/12/08 04:12:19;;;;;;;51.50;25.30;;;0.10;99.90;;;;;;5072859;28;20285;-54
2021/12/08 04:14:56;;;;;;;61.30;23.98;;;0.00;99.90;;;;;;5068843;28;20460;-52
2021/12/08 04:17:45;;;;;;;45.30;24.35;;;0.10;99.90;;;;;;5074839;28;20460;-53
2021/12/08 04:20:21;;;;;;;39.45;23.48;;;0.10;99.90;;;;;;5075611;28;20203;-57
2021/12/08 04:22:52;;;;;;;41.20;21.83;;;0.10;99.90;;;;;;5073342;28;20247;-55
2021/12/08 04:25:25;;;;;;;45.97;24.52;;;0.20;99.90;;;;;;5080300;28;20207;-53
2021/12/08 04:27:54;;;;;;;60.33;24.85;;;0.10;99.90;;;;;;5075980;28;20269;-53
2021/12/08 04:30:32;;;;;;;51.58;24.13;;;0.10;99.90;;;;;;5076803;28;20215;-55
2021/12/08 04:33:06;;;;;;;47.78;24.55;;;0.10;99.90;;;;;;5080599;28;20222;-52
2021/12/08 04:35:33;;;;;;;45.20;22.42;;;0.10;99.90;;;;;;5079589;28;20222;-55
2021/12/08 04:38:06;;;;;;;50.85;25.95;;;0.10;99.90;;;;;;5079821;28;20199;-55
2021/12/08 04:43:43;;;;;;;42.38;20.25;;;0.20;99.90;;;;;;5081941;28;20194;-52
2021/12/08 04:47:06;;;;;;;43.97;23.25;;;0.20;99.90;;;;;;5079680;28;20237;-54
2021/12/08 04:51:56;;;;;;;45.25;24.52;;;0.20;99.90;;;;;;5079959;28;20553;-55
2021/12/08 05:08:43;;;;;;;48.95;24.70;;;0.10;99.90;;;;;;5078855;28;20202;-53
2021/12/08 05:11:20;;;;;;;41.63;24.77;;;0.20;99.90;;;;;;5071240;28;20333;-56
2021/12/08 05:13:54;;;;;;;54.13;27.38;;;0.20;99.90;;;;;;5079608;28;20206;-54
2021/12/08 05:16:23;;;;;;;44.65;23.08;;;0.20;99.90;;;;;;5079400;28;20481;-51
2021/12/08 05:18:53;;;;;;;55.00;23.65;;;0.30;99.90;;;;;;5083847;28;20701;-53
2021/12/08 05:21:44;;;;;;;48.72;22.98;;;0.20;99.90;;;;;;5084648;28;20236;-57
2021/12/08 05:24:16;;;;;;;41.88;20.92;;;0.30;99.90;;;;;;5084229;28;20203;-53
2021/12/08 05:26:53;;;;;;;43.08;21.83;;;0.20;99.90;;;;;;5083763;28;20221;-53
2021/12/08 05:29:32;;;;;;;48.85;24.73;;;0.20;99.90;;;;;;5084058;28;20202;-52
2021/12/08 05:32:02;;;;;;;51.85;23.27;;;0.20;99.90;;;;;;5083500;28;20457;-55
2021/12/08 05:34:30;;;;;;;42.80;23.10;;;0.20;99.90;;;;;;5084487;28;20206;-55
2021/12/08 05:36:58;;;;;;;52.03;22.25;;;0.20;99.90;;;;;;5083468;28;20325;-54
2021/12/08 05:39:27;;;;;;;37.08;20.17;;;0.10;99.90;;;;;;5083532;28;20655;-53
2021/12/08 05:42:07;;;;;;;45.63;22.33;;;0.10;99.90;;;;;;5083164;28;20215;-53
2021/12/08 05:44:35;;;;;;;55.25;24.92;;;0.20;99.90;;;;;;5083515;28;20190;-54
2021/12/08 05:47:07;;;;;;;48.97;24.48;;;0.20;99.90;;;;;;5079497;28;20556;-55
2021/12/08 05:49:34;;;;;;;37.95;20.38;;;0.20;99.90;;;;;;5064711;28;20401;-56
2021/12/08 05:52:03;;;;;;;42.33;22.88;;;0.20;99.90;;;;;;5063114;28;20224;-54
2021/12/08 05:54:33;;;;;;;41.13;21.98;;;0.20;99.90;;;;;;5062871;28;20233;-52
2021/12/08 05:57:07;;;;;;;49.72;23.23;;;0.20;99.90;;;;;;5045064;28;20229;-53
2021/12/08 05:59:35;;;;;;;52.17;26.60;;;0.10;99.90;;;;;;5062752;28;20203;-56
2021/12/08 06:02:10;;;;;;;42.45;22.98;;;0.20;99.90;;;;;;5062827;28;20215;-51
2021/12/08 06:04:39;;;;;;;40.58;23.40;;;0.10;99.90;;;;;;5073131;28;20198;-52
2021/12/08 06:07:07;;;;;;;46.30;22.98;;;0.20;99.90;;;;;;5082552;28;20195;-53
2021/12/08 06:09:37;;;;;;;36.67;21.98;;;0.20;99.90;;;;;;5082359;28;20510;-53
2021/12/08 06:12:07;;;;;;;37.90;20.90;;;0.20;99.90;;;;;;5082404;28;20289;-55
2021/12/08 06:14:35;;;;;;;41.72;21.00;;;0.20;99.90;;;;;;5082122;28;20389;-54
2021/12/08 06:17:07;;;;;;;40.67;25.45;;;0.20;99.90;;;;;;5081978;28;20187;-53
2021/12/08 06:19:36;;;;;;;33.63;19.15;;;0.20;99.90;;;;;;5082682;28;20370;-52
2021/12/08 06:22:05;;;;;;;40.65;24.45;;;0.10;99.90;;;;;;5086086;28;20219;-54
2021/12/08 06:24:34;;;;;;;40.90;20.13;;;0.10;99.90;;;;;;5087228;28;20199;-54
2021/12/08 06:27:02;;;;;;;39.72;23.65;;;0.10;99.90;;;;;;5086991;28;20264;-57
2021/12/08 06:29:30;;;;;;;40.33;25.00;;;0.10;99.90;;;;;;5086206;28;20440;-55
2021/12/08 06:32:00;;;;;;;47.85;26.20;;;0.10;99.90;;;;;;5088293;28;20239;-52
2021/12/08 06:34:28;;;;;;;43.90;21.58;;;0.20;99.90;;;;;;5087782;28;20194;-56
2021/12/08 06:37:00;;;;;;;42.30;21.58;;;0.10;99.90;;;;;;5081969;28;20421;-53
2021/12/08 06:39:33;;;;;;;40.00;23.73;;;0.10;99.90;;;;;;5082649;28;20237;-53
2021/12/08 06:42:06;;;;;;;49.97;24.70;;;0.10;99.90;;;;;;5082274;28;20227;-54
2021/12/08 06:44:41;;;;;;;42.40;25.05;;;0.10;99.90;;;;;;5082427;28;20211;-54
2021/12/08 06:47:16;;;;;;;40.22;24.70;;;0.10;99.90;;;;;;5081678;28;20343;-53
2021/12/08 06:49:45;;;;;;;47.95;24.30;;;0.20;99.90;;;;;;5082436;28;20495;-54
2021/12/08 06:52:20;;;;;;;48.03;24.85;;;0.20;99.90;;;;;;5082544;28;20525;-58
2021/12/08 06:55:00;;;;;;;44.80;21.00;;;0.20;99.90;;;;;;5083187;28;20203;-52
2021/12/08 06:57:38;;;;;;;42.97;24.27;;;0.10;99.90;;;;;;5082039;28;20195;-55
2021/12/08 07:01:13;;;;;;;44.67;25.27;;;0.10;99.90;;;;;;5081701;28;20213;-54
2021/12/08 07:03:36;;;;;;;45.05;23.33;;;0.10;99.90;;;;;;5078195;28;20194;-54
2021/12/08 07:06:28;;;;;;;51.60;25.20;;;0.10;99.90;;;;;;5081732;28;20302;-54
2021/12/08 07:08:58;;;;;;;51.97;25.38;;;-0.10;99.90;;;;;;5081507;28;20199;-55
2021/12/08 07:11:27;;;;;;;38.65;20.90;;;0.00;99.90;;;;;;5076847;28;20227;-56
2021/12/08 07:13:56;;;;;;;51.63;25.60;;;0.00;99.90;;;;;;5081708;28;20206;-55
2021/12/08 07:16:33;;;;;;;41.25;24.05;;;0.00;99.90;;;;;;5080935;28;20281;-54
2021/12/08 07:19:11;;;;;;;44.83;24.60;;;0.00;99.90;;;;;;5083129;28;20244;-54
2021/12/08 07:21:46;;;;;;;51.63;27.67;;;0.00;99.90;;;;;;5083029;28;20537;-55
2021/12/08 07:24:18;;;;;;;39.60;22.75;;;0.10;99.90;;;;;;5083382;28;20489;-54
2021/12/08 07:26:50;;;;;;;47.40;25.65;;;0.10;99.90;;;;;;5081242;28;20199;-53
2021/12/08 07:29:24;;;;;;;48.38;24.27;;;0.10;99.90;;;;;;5081781;28;20211;-54
2021/12/08 07:31:57;;;;;;;47.08;25.70;;;-0.10;99.90;;;;;;5080728;28;20225;-54
2021/12/08 07:34:25;;;;;;;46.53;25.88;;;-0.10;99.90;;;;;;5081344;28;20398;-56
2021/12/08 07:36:57;;;;;;;45.60;24.58;;;-0.20;99.90;;;;;;5081089;28;20226;-54
2021/12/08 07:39:28;;;;;;;43.15;25.50;;;-0.10;99.90;;;;;;5080379;28;20206;-54
2021/12/08 07:42:11;;;;;;;50.97;28.85;;;-0.10;99.90;;;;;;5081154;28;20237;-55
2021/12/08 07:44:38;;;;;;;45.03;26.08;;;0.00;99.90;;;;;;5081145;28;20195;-55
2021/12/08 07:47:09;;;;;;;51.47;23.50;;;0.00;99.90;;;;;;5081520;28;20230;-53
2021/12/08 07:49:45;;;;;;;39.55;23.67;;;0.00;99.90;;;;;;5081481;28;20235;-52
2021/12/08 07:52:19;;;;;;;39.10;22.73;;;0.00;99.90;;;;;;5081203;28;20264;-53
2021/12/08 07:54:47;;;;;;;41.60;23.95;;;-0.10;99.90;;;;;;5081179;28;20203;-52
2021/12/08 07:57:22;;;;;;;34.67;20.27;;;0.10;99.90;;;;;;5080351;28;20245;-52
2021/12/08 07:59:54;;;;;;;45.10;22.77;;;0.00;99.90;;;;;;5080963;28;20252;-53
2021/12/08 08:02:25;;;;;;;45.63;25.80;;;0.00;99.90;;;;;;5083155;28;20479;-56
2021/12/08 08:04:56;;;;;;;36.85;21.15;;;-0.10;99.90;;;;;;5081981;28;20451;-57
2021/12/08 08:07:24;;;;;;;36.88;20.17;;;0.00;99.90;;;;;;5080745;28;20195;-53
2021/12/08 08:09:59;;;;;;;43.13;21.45;;;-0.10;99.90;;;;;;5080932;28;20199;-54
2021/12/08 08:12:33;;;;;;;50.45;22.60;;;-0.10;99.90;;;;;;5062511;28;20261;-54
2021/12/08 08:15:05;;;;;;;47.65;23.45;;;0.00;99.90;;;;;;5080731;28;20277;-54
2021/12/08 08:17:39;;;;;;;42.80;20.02;;;0.10;99.90;;;;;;5080938;28;20233;-56
2021/12/08 08:20:16;;;;;;;37.03;21.42;;;0.10;99.90;;;;;;5081670;28;20199;-57
2021/12/08 08:22:44;;;;;;;32.67;19.10;;;0.20;99.90;;;;;;5081827;28;20221;-56
2021/12/08 08:25:15;;;;;;;37.25;17.67;;;0.10;99.90;;;;;;5081411;28;20370;-53
2021/12/08 08:27:43;;;;;;;33.30;18.80;;;0.00;99.90;;;;;;5082209;28;20203;-55
2021/12/08 08:30:18;;;;;;;26.65;16.48;;;0.10;99.90;;;;;;5084166;28;20195;-56
2021/12/08 08:32:49;;;;;;;24.85;15.25;;;0.20;99.90;;;;;;5066779;28;20240;-55
2021/12/08 08:35:21;;;;;;;28.65;15.40;;;0.10;99.90;;;;;;5082476;28;20217;-53
2021/12/08 08:37:50;;;;;;;24.13;14.82;;;0.10;99.90;;;;;;5081293;28;20238;-55
2021/12/08 08:40:26;;;;;;;25.77;17.45;;;0.10;99.90;;;;;;5081722;28;20264;-56
2021/12/08 08:42:55;;;;;;;27.45;17.48;;;0.20;99.90;;;;;;5080635;28;20202;-56
2021/12/08 08:45:37;;;;;;;26.92;16.10;;;0.10;99.90;;;;;;5080460;28;20218;-53
2021/12/08 08:48:15;;;;;;;24.30;15.95;;;0.10;99.90;;;;;;5080455;28;20248;-56
2021/12/08 08:50:59;;;;;;;27.65;15.55;;;0.10;99.90;;;;;;5080422;28;20252;-57
2021/12/08 08:53:30;;;;;;;27.98;16.58;;;0.10;99.90;;;;;;5081792;28;20428;-56
2021/12/08 08:56:03;;;;;;;29.00;17.20;;;0.20;99.90;;;;;;5064490;28;20211;-54
2021/12/08 08:58:33;;;;;;;36.03;18.35;;;0.20;99.90;;;;;;5081679;28;20214;-56
2021/12/08 09:01:13;;;;;;;44.55;21.90;;;0.20;99.90;;;;;;5062395;28;20222;-54
2021/12/08 09:03:53;;;;;;;43.80;25.33;;;0.10;99.90;;;;;;5080523;28;20289;-54
2021/12/08 09:06:33;;;;;;;50.80;24.90;;;0.20;99.90;;;;;;5080538;28;20256;-55
2021/12/08 09:09:09;;;;;;;99.75;35.95;;;0.20;99.90;;;;;;5080341;28;20217;-56
2021/12/08 09:11:50;;;;;;;37.60;22.10;;;0.20;99.90;;;;;;5063523;28;20248;-54
2021/12/08 09:14:36;;;;;;;94.95;42.95;;;0.10;99.90;;;;;;5080352;28;20509;-54
2021/12/08 09:17:06;;;;;;;121.63;55.00;;;0.10;99.90;;;;;;5080034;28;20222;-55
2021/12/08 09:19:42;;;;;;;28.08;15.82;;;0.10;99.90;;;;;;5080628;28;20266;-57
2021/12/08 09:22:41;;;;;;;37.35;18.42;;;0.10;99.90;;;;;;5079780;28;20218;-56
2021/12/08 09:25:12;;;;;;;36.92;21.98;;;0.10;99.90;;;;;;5080990;28;20199;-55
2021/12/08 09:27:44;;;;;;;35.25;18.52;;;0.00;99.90;;;;;;5081373;28;20194;-56
2021/12/08 09:30:21;;;;;;;45.00;18.83;;;0.10;99.90;;;;;;5082576;28;20478;-54
2021/12/08 09:33:17;;;;;;;33.13;18.48;;;0.10;99.90;;;;;;5081333;28;20218;-55
2021/12/08 09:36:00;;;;;;;29.88;18.90;;;0.10;99.90;;;;;;5081399;28;20287;-55
2021/12/08 09:38:33;;;;;;;42.25;21.75;;;0.00;99.90;;;;;;5062917;28;20207;-54
2021/12/08 09:41:10;;;;;;;33.97;19.27;;;0.00;99.90;;;;;;5081848;28;20230;-55
2021/12/08 09:43:44;;;;;;;35.20;18.20;;;0.10;99.90;;;;;;5083279;28;20198;-55
2021/12/08 09:46:20;;;;;;;35.28;19.42;;;0.10;99.90;;;;;;5083929;28;20324;-53
2021/12/08 09:48:48;;;;;;;36.05;20.60;;;0.20;99.90;;;;;;5085145;28;20221;-54
2021/12/08 09:51:20;;;;;;;41.47;21.65;;;0.10;99.90;;;;;;5081394;28;20264;-51
2021/12/08 09:53:48;;;;;;;40.63;22.25;;;0.20;99.90;;;;;;5080410;28;20202;-54
2021/12/08 09:56:17;;;;;;;30.20;21.05;;;0.10;99.90;;;;;;5079411;28;20218;-53
2021/12/08 09:58:45;;;;;;;33.65;21.38;;;0.00;99.90;;;;;;5080294;28;20195;-51
2021/12/08 10:01:18;;;;;;;36.17;20.75;;;0.10;99.90;;;;;;5079772;28;20223;-58
2021/12/08 10:03:51;;;;;;;32.72;20.80;;;0.10;99.90;;;;;;5082373;28;20219;-52
2021/12/08 10:06:20;;;;;;;38.30;21.27;;;0.10;99.90;;;;;;5083126;28;20248;-50
2021/12/08 10:08:49;;;;;;;38.03;20.67;;;0.10;99.90;;;;;;5065887;28;20262;-55
2021/12/08 10:11:18;;;;;;;37.70;18.63;;;0.00;99.90;;;;;;5065018;28;20548;-56
2021/12/08 10:13:46;;;;;;;39.97;21.55;;;0.10;99.90;;;;;;5083133;28;20484;-53
2021/12/08 10:16:14;;;;;;;39.75;21.17;;;0.10;99.90;;;;;;5082974;28;20215;-55
2021/12/08 10:18:43;;;;;;;38.90;22.38;;;0.10;99.90;;;;;;5082397;28;20195;-54
2021/12/08 10:21:13;;;;;;;37.00;19.48;;;0.10;99.90;;;;;;5082821;28;20243;-53
2021/12/08 10:23:44;;;;;;;39.90;23.48;;;-0.10;99.90;;;;;;5082606;28;20280;-55
2021/12/08 10:26:12;;;;;;;36.55;22.52;;;-0.10;99.90;;;;;;5082865;28;20514;-55
2021/12/08 10:28:46;;;;;;;38.35;19.83;;;0.00;99.90;;;;;;5064886;28;20386;-53
2021/12/08 10:31:28;;;;;;;32.20;20.95;;;0.00;99.90;;;;;;5082765;28;20734;-53
2021/12/08 10:34:24;;;;;;;38.67;23.27;;;0.00;99.90;;;;;;5082755;28;20244;-53
2021/12/08 10:36:53;;;;;;;44.80;22.85;;;0.00;99.90;;;;;;5082531;28;20929;-53
2021/12/08 10:39:23;;;;;;;40.53;24.05;;;0.00;99.90;;;;;;5082175;28;20413;-51
2021/12/08 10:41:53;;;;;;;37.35;23.02;;;-0.10;99.90;;;;;;5082579;28;20462;-53
2021/12/08 10:44:57;;;;;;;45.13;24.55;;;-0.10;99.90;;;;;;5081995;28;20203;-54
2021/12/08 10:47:27;;;;;;;45.92;25.80;;;-0.20;99.90;;;;;;5082409;28;20218;-56
2021/12/08 10:55:20;;;;;;;47.25;26.73;;;-0.10;99.90;;;;;;5081404;28;20199;-52
2021/12/08 10:57:53;;;;;;;47.40;25.38;;;-0.20;99.90;;;;;;5082225;28;20227;-55
2021/12/08 11:00:25;;;;;;;51.17;27.95;;;-0.20;99.90;;;;;;5082038;28;20199;-53
2021/12/08 11:02:56;;;;;;;49.08;26.73;;;-0.10;99.90;;;;;;5082104;28;20199;-51
2021/12/08 11:05:28;;;;;;;41.40;24.23;;;0.00;99.90;;;;;;5081923;28;20228;-57
2021/12/08 11:08:10;;;;;;;46.20;24.38;;;-0.10;99.90;;;;;;5081687;28;20303;-52
2021/12/08 11:10:49;;;;;;;39.40;23.10;;;-0.10;99.90;;;;;;5082203;28;20236;-52
2021/12/08 11:13:20;;;;;;;50.28;24.48;;;0.00;99.90;;;;;;5081650;28;20205;-54
2021/12/08 11:15:59;;;;;;;51.03;25.50;;;0.00;99.90;;;;;;5082134;28;20211;-55
2021/12/08 11:18:30;;;;;;;49.08;25.65;;;-0.10;99.90;;;;;;5081352;28;20506;-56
2021/12/08 11:21:02;;;;;;;55.53;25.48;;;-0.10;99.90;;;;;;5084282;28;20214;-54
2021/12/08 11:23:45;;;;;;;51.90;27.63;;;-0.10;99.90;;;;;;5083057;28;20199;-55
2021/12/08 11:26:15;;;;;;;49.03;23.80;;;-0.10;99.90;;;;;;5083429;28;20210;-54
2021/12/08 11:28:44;;;;;;;40.22;22.98;;;-0.10;99.90;;;;;;5083240;28;20203;-56
2021/12/08 11:31:15;;;;;;;34.75;22.00;;;-0.10;99.90;;;;;;5083659;28;20281;-53
2021/12/08 11:33:49;;;;;;;46.50;24.55;;;-0.10;99.90;;;;;;5082147;28;20478;-52
2021/12/08 11:36:19;;;;;;;41.45;23.20;;;0.00;99.90;;;;;;5081634;28;20325;-56
2021/12/08 11:38:49;;;;;;;35.30;20.55;;;0.10;99.90;;;;;;5082431;28;20195;-56
2021/12/08 11:41:45;;;;;;;38.60;21.75;;;-0.10;99.90;;;;;;5083673;28;20234;-53
2021/12/08 11:44:24;;;;;;;37.67;21.30;;;-0.10;99.90;;;;;;5082787;28;20250;-58
2021/12/08 11:47:04;;;;;;;41.45;22.55;;;0.00;99.90;;;;;;5081244;28;20211;-52
2021/12/08 11:49:31;;;;;;;40.72;21.80;;;-0.10;99.90;;;;;;5081322;28;20461;-56
2021/12/08 11:52:05;;;;;;;39.42;22.88;;;-0.10;99.90;;;;;;5081042;28;20234;-55
2021/12/08 11:55:01;;;;;;;47.72;24.88;;;-0.20;99.90;;;;;;5082019;28;20206;-53
2021/12/08 11:57:35;;;;;;;42.05;22.80;;;-0.20;99.90;;;;;;5078669;28;20223;-51
2021/12/08 12:00:17;;;;;;;37.75;21.90;;;-0.20;99.90;;;;;;5080900;28;20362;-55
2021/12/08 12:02:56;;;;;;;48.30;23.55;;;-0.20;99.90;;;;;;5063090;28;20421;-56
2021/12/08 12:05:36;;;;;;;38.25;23.77;;;-0.20;99.90;;;;;;5080764;28;20175;-55
2021/12/08 12:08:09;;;;;;;41.97;23.48;;;-0.10;99.90;;;;;;5080238;28;20507;-55
2021/12/08 12:10:39;;;;;;;44.97;25.15;;;-0.20;99.90;;;;;;5080649;28;20206;-53
2021/12/08 12:13:11;;;;;;;41.85;23.60;;;-0.30;99.90;;;;;;5080226;28;20562;-54
2021/12/08 12:15:42;;;;;;;39.70;23.30;;;-0.20;99.90;;;;;;5080916;28;20214;-53
2021/12/08 12:18:09;;;;;;;36.13;20.50;;;-0.20;99.90;;;;;;5079971;28;20553;-54
2021/12/08 12:20:40;;;;;;;38.67;21.63;;;-0.20;99.90;;;;;;5080450;28;20202;-54
2021/12/08 12:23:42;;;;;;;43.10;23.83;;;-0.20;99.90;;;;;;5080608;28;20240;-56
2021/12/08 12:27:07;;;;;;;35.72;19.98;;;-0.30;99.90;;;;;;5080050;28;20194;-52
2021/12/08 12:30:15;;;;;;;44.05;21.95;;;-0.30;99.90;;;;;;5018369;28;20260;-51
2021/12/08 12:32:50;;;;;;;41.28;21.33;;;-0.20;99.90;;;;;;4960159;29;20254;-52
2021/12/08 12:35:26;;;;;;;41.28;23.13;;;-0.30;99.90;;;;;;5062618;28;20240;-52
2021/12/08 12:38:03;;;;;;;36.50;22.55;;;-0.30;99.90;;;;;;5080324;28;20413;-54
2021/12/08 12:40:52;;;;;;;44.75;23.70;;;-0.40;99.90;;;;;;5079570;28;20195;-52
2021/12/08 12:43:39;;;;;;;31.05;20.55;;;-0.40;99.90;;;;;;5080278;28;20195;-56
2021/12/08 12:46:12;;;;;;;33.13;20.85;;;-0.40;99.90;;;;;;5080390;28;20445;-53
2021/12/08 12:48:48;;;;;;;38.30;20.05;;;-0.40;99.90;;;;;;5080313;28;20273;-54
2021/12/08 12:51:15;;;;;;;34.72;18.25;;;-0.40;99.90;;;;;;5080115;28;20219;-55
2021/12/08 12:53:58;;;;;;;38.17;22.42;;;-0.40;99.90;;;;;;5081048;28;20194;-53
2021/12/08 12:56:34;;;;;;;35.08;21.30;;;-0.40;99.90;;;;;;5081329;28;20218;-52
2021/12/08 12:59:14;;;;;;;34.80;21.00;;;-0.40;99.90;;;;;;5081974;28;20248;-54
2021/12/08 13:01:47;;;;;;;26.08;18.17;;;-0.40;99.90;;;;;;5083560;28;20524;-53
2021/12/08 13:04:21;;;;;;;39.50;20.73;;;-0.50;99.90;;;;;;5063478;28;20236;-51
2021/12/08 13:06:56;;;;;;;37.00;20.25;;;-0.40;99.90;;;;;;5080410;28;20199;-56
2021/12/08 13:09:48;;;;;;;33.25;19.38;;;-0.40;99.90;;;;;;5080357;28;20202;-55
2021/12/08 13:12:34;;;;;;;39.40;22.45;;;-0.40;99.90;;;;;;5080359;28;20561;-52
2021/12/08 13:15:29;;;;;;;36.65;21.58;;;-0.40;99.90;;;;;;5080077;28;20256;-52
2021/12/08 13:18:03;;;;;;;35.17;20.38;;;-0.40;99.90;;;;;;5078025;28;20222;-56
2021/12/08 13:20:37;;;;;;;37.15;20.52;;;-0.40;99.90;;;;;;5079778;28;20349;-54
2021/12/08 13:23:07;;;;;;;43.88;20.60;;;-0.40;99.90;;;;;;5080571;28;20194;-59
2021/12/08 13:26:00;;;;;;;36.53;22.55;;;-0.40;99.90;;;;;;5080446;28;20463;-53
2021/12/08 13:29:04;;;;;;;39.80;23.23;;;-0.40;99.90;;;;;;5081520;28;20509;-57
2021/12/08 13:31:37;;;;;;;36.13;22.90;;;-0.30;99.90;;;;;;5081863;28;20377;-56
2021/12/08 13:34:08;;;;;;;33.67;22.27;;;-0.40;99.90;;;;;;5082802;28;20505;-56
2021/12/08 13:36:43;;;;;;;33.30;21.95;;;-0.40;99.90;;;;;;5085998;28;20218;-60
2021/12/08 13:39:22;;;;;;;29.45;18.75;;;-0.50;99.90;;;;;;5089084;28;20208;-60
2021/12/08 13:42:28;;;;;;;45.35;21.17;;;-0.40;99.90;;;;;;5088970;28;20236;-57
2021/12/08 13:45:12;;;;;;;42.03;21.52;;;-0.40;99.90;;;;;;5085434;28;20194;-57
2021/12/08 13:47:46;;;;;;;40.08;20.23;;;-0.40;99.90;;;;;;5083631;28;20396;-56
2021/12/08 13:50:19;;;;;;;42.90;21.95;;;-0.40;99.90;;;;;;5083750;28;20222;-58
2021/12/08 13:53:06;;;;;;;32.85;18.77;;;-0.40;99.90;;;;;;5082872;28;20219;-57
2021/12/08 13:55:38;;;;;;;37.10;21.45;;;-0.40;99.90;;;;;;5083686;28;20211;-58
2021/12/08 13:58:14;;;;;;;39.50;22.77;;;-0.50;99.90;;;;;;5083245;28;20229;-54